createdAt,value
2024-05-09T00:00:35.567Z,82.11
2024-05-09T00:03:10.180Z,81.92
2024-05-09T00:05:41.342Z,82.04
2024-05-09T00:08:09.854Z,82.02
2024-05-09T00:10:39.024Z,81.99
2024-05-09T00:13:07.776Z,82.06
2024-05-09T00:15:35.187Z,81.96
2024-05-09T00:18:03.149Z,81.98
2024-05-09T00:20:37.520Z,81.92
2024-05-09T00:23:08.436Z,81.76
2024-05-09T00:25:35.712Z,81.83
2024-05-09T00:28:02.900Z,81.85
2024-05-09T00:30:34.438Z,81.81
2024-05-09T00:33:08.259Z,81.65
2024-05-09T00:35:36.524Z,81.77
2024-05-09T00:38:03.490Z,81.66
2024-05-09T00:40:41.360Z,81.47
2024-05-09T00:43:11.714Z,81.54
2024-05-09T00:45:39.010Z,81.58
2024-05-09T00:48:08.170Z,81.58
2024-05-09T00:50:39.702Z,81.37
2024-05-09T00:53:10.451Z,80.98
2024-05-09T00:55:37.705Z,81.02
2024-05-09T00:58:05.356Z,81.06
2024-05-09T01:04:13.416Z,81.01
2024-05-09T01:06:39.745Z,80.94
2024-05-09T01:09:05.724Z,80.83
2024-05-09T01:11:38.092Z,80.79
2024-05-09T01:14:04.520Z,80.73
2024-05-09T01:16:31.392Z,80.66
2024-05-09T01:18:58.555Z,80.79
2024-05-09T01:21:24.884Z,80.86
2024-05-09T01:23:50.821Z,81.01
2024-05-09T01:26:16.870Z,80.85
2024-05-09T01:28:42.870Z,80.80
2024-05-09T01:31:14.952Z,80.98
2024-05-09T01:33:44.110Z,81.27
2024-05-09T01:36:10.718Z,81.28
2024-05-09T01:38:36.845Z,81.28
2024-05-09T01:41:03.340Z,81.35
2024-05-09T01:43:29.437Z,81.36
2024-05-09T01:45:55.391Z,81.43
2024-05-09T01:48:21.541Z,81.58
2024-05-09T01:50:47.857Z,81.81
2024-05-09T01:53:14.742Z,81.87
2024-05-09T01:55:42.278Z,81.93
2024-05-09T01:58:08.522Z,81.98
2024-05-09T02:00:40.284Z,82.03
2024-05-09T02:03:12.065Z,82.09
2024-05-09T02:05:42.036Z,82.03
2024-05-09T02:08:19.473Z,82.09
2024-05-09T02:10:48.096Z,82.07
2024-05-09T02:13:15.036Z,82.10
2024-05-09T02:15:41.256Z,82.19
2024-05-09T02:18:07.657Z,82.27
2024-05-09T02:31:26.536Z,82.41
2024-05-09T02:33:53.444Z,82.47
2024-05-09T02:36:20.151Z,82.37
2024-05-09T02:38:46.719Z,82.19
2024-05-09T02:41:13.478Z,82.13
2024-05-09T02:43:40.121Z,82.22
2024-05-09T02:46:07.225Z,82.43
2024-05-09T02:48:33.990Z,82.63
2024-05-09T02:51:02.453Z,82.79
2024-05-09T02:53:29.301Z,82.86
2024-05-09T02:55:56.409Z,82.80
2024-05-09T02:58:23.224Z,82.93
2024-05-09T03:00:49.902Z,82.95
2024-05-09T03:03:16.925Z,82.87
2024-05-09T03:05:44.518Z,82.74
2024-05-09T03:08:11.674Z,82.67
2024-05-09T03:10:39.385Z,82.55
2024-05-09T03:13:08.257Z,82.62
2024-05-09T03:15:35.058Z,82.57
2024-05-09T03:18:01.878Z,82.60
2024-05-09T03:20:34.017Z,82.53
2024-05-09T03:23:07.161Z,82.57
2024-05-09T03:25:34.069Z,82.66
2024-05-09T03:28:00.787Z,82.67
2024-05-09T03:30:36.670Z,82.51
2024-05-09T03:33:19.637Z,82.52
2024-05-09T03:35:48.037Z,82.50
2024-05-09T03:38:15.098Z,82.40
2024-05-09T03:40:50.021Z,82.22
2024-05-09T03:43:18.404Z,82.20
2024-05-09T03:45:48.479Z,82.17
2024-05-09T03:48:15.413Z,82.16
2024-05-09T03:50:42.367Z,82.20
2024-05-09T03:53:14.243Z,82.29
2024-05-09T03:55:41.545Z,82.30
2024-05-09T03:58:08.686Z,82.51
2024-05-09T04:00:39.026Z,82.52
2024-05-09T04:03:09.819Z,82.60
2024-05-09T04:05:44.337Z,82.53
2024-05-09T04:08:12.675Z,82.59
2024-05-09T04:10:40.606Z,82.74
2024-05-09T04:13:07.158Z,82.64
2024-05-09T04:15:33.666Z,82.57
2024-05-09T04:18:00.854Z,82.58
2024-05-09T04:20:37.140Z,82.51
2024-05-09T04:23:13.995Z,82.38
2024-05-09T04:25:43.414Z,82.18
2024-05-09T04:28:10.088Z,82.10
2024-05-09T04:30:39.648Z,82.02
2024-05-09T04:33:11.546Z,82.10
2024-05-09T04:35:44.148Z,81.99
2024-05-09T04:38:12.208Z,82.02
2024-05-09T04:40:38.923Z,82.02
2024-05-09T04:43:07.116Z,82.05
2024-05-09T04:45:34.211Z,81.95
2024-05-09T04:48:01.569Z,81.89
2024-05-09T04:50:36.291Z,81.77
2024-05-09T04:53:08.184Z,81.66
2024-05-09T04:55:36.291Z,81.69
2024-05-09T04:58:02.943Z,81.79
2024-05-09T05:00:35.896Z,81.76
2024-05-09T05:03:13.696Z,81.66
2024-05-09T05:05:44.061Z,81.67
2024-05-09T05:08:17.715Z,81.55
2024-05-09T05:10:46.768Z,81.40
2024-05-09T05:13:20.035Z,81.29
2024-05-09T05:15:56.972Z,81.22
2024-05-09T05:18:26.503Z,81.25
2024-05-09T05:20:54.630Z,81.11
2024-05-09T05:23:22.247Z,81.01
2024-05-09T05:25:52.328Z,80.94
2024-05-09T05:28:22.590Z,80.77
2024-05-09T05:30:49.448Z,80.57
2024-05-09T05:33:19.843Z,80.47
2024-05-09T05:35:50.902Z,80.35
2024-05-09T05:38:19.116Z,80.25
2024-05-09T05:40:46.560Z,80.13
2024-05-09T05:43:18.040Z,80.18
2024-05-09T05:45:45.715Z,80.03
2024-05-09T05:48:20.059Z,79.97
2024-05-09T05:50:46.914Z,79.94
2024-05-09T05:53:13.775Z,79.86
2024-05-09T05:55:40.911Z,79.66
2024-05-09T05:58:12.273Z,79.53
2024-05-09T06:00:41.809Z,78.96
2024-05-09T06:03:10.261Z,78.75
2024-05-09T06:05:42.970Z,78.59
2024-05-09T06:08:09.714Z,78.34
2024-05-09T06:10:39.484Z,78.18
2024-05-09T06:13:12.281Z,77.85
2024-05-09T06:15:43.755Z,77.44
2024-05-09T06:18:12.201Z,77.11
2024-05-09T06:20:44.479Z,76.83
2024-05-09T06:23:12.685Z,76.31
2024-05-09T06:25:40.013Z,76.18
2024-05-09T06:28:06.874Z,75.86
2024-05-09T06:30:40.002Z,74.97
2024-05-09T06:33:14.564Z,73.95
2024-05-09T06:35:43.876Z,73.65
2024-05-09T06:38:11.181Z,72.70
2024-05-09T06:40:41.314Z,71.75
2024-05-09T06:43:18.193Z,70.49
2024-05-09T06:45:48.466Z,69.97
2024-05-09T06:48:19.609Z,68.77
2024-05-09T06:50:46.888Z,67.75
2024-05-09T06:53:14.983Z,67.06
2024-05-09T06:55:42.182Z,67.10
2024-05-09T06:58:09.096Z,66.69
2024-05-09T07:00:39.648Z,65.82
2024-05-09T07:03:14.740Z,65.24
2024-05-09T07:05:44.440Z,63.84
2024-05-09T07:08:12.974Z,62.93
2024-05-09T07:10:39.617Z,62.68
2024-05-09T07:13:10.400Z,62.15
2024-05-09T07:15:37.617Z,62.12
2024-05-09T07:18:18.058Z,62.04
2024-05-09T07:20:47.665Z,62.10
2024-05-09T07:23:15.733Z,63.35
2024-05-09T07:25:42.750Z,62.87
2024-05-09T07:28:15.552Z,62.41
2024-05-09T07:30:43.076Z,61.98
2024-05-09T07:33:15.170Z,60.80
2024-05-09T07:35:41.819Z,60.39
2024-05-09T07:38:08.454Z,59.63
2024-05-09T07:40:36.865Z,57.72
2024-05-09T07:43:07.634Z,56.82
2024-05-09T07:52:32.400Z,54.57
2024-05-09T07:53:39.583Z,54.51
2024-05-09T07:56:11.612Z,53.85
2024-05-09T07:58:39.085Z,53.00
2024-05-09T08:01:06.035Z,51.81
2024-05-09T08:03:33.922Z,53.14
2024-05-09T08:06:01.049Z,53.94
2024-05-09T08:08:27.558Z,54.30
2024-05-09T08:10:54.100Z,52.96
2024-05-09T08:13:20.836Z,49.15
2024-05-09T08:15:48.530Z,46.77
2024-05-09T08:18:15.263Z,44.43
2024-05-09T08:20:42.009Z,41.16
2024-05-09T08:23:08.517Z,40.14
2024-05-09T08:25:36.179Z,40.22
2024-05-09T08:28:04.986Z,41.64
2024-05-09T08:30:36.777Z,42.12
2024-05-09T08:33:06.311Z,43.43
2024-05-09T08:35:33.799Z,42.60
2024-05-09T08:38:03.336Z,41.43
2024-05-09T08:40:35.305Z,38.17
2024-05-09T08:43:08.514Z,38.50
2024-05-09T08:45:38.028Z,40.41
2024-05-09T08:48:08.571Z,41.33
2024-05-09T08:50:40.424Z,41.77
2024-05-09T08:53:08.554Z,42.61
2024-05-09T08:55:39.443Z,43.02
2024-05-09T08:58:16.194Z,40.77
2024-05-09T09:00:45.179Z,40.25
2024-05-09T09:03:19.232Z,39.51
2024-05-09T09:06:08.873Z,38.08
2024-05-09T09:08:39.231Z,37.76
2024-05-09T09:11:06.395Z,36.33
2024-05-09T09:13:33.023Z,35.74
2024-05-09T09:16:00.893Z,35.20
2024-05-09T09:18:29.784Z,34.45
2024-05-09T09:20:56.581Z,35.28
2024-05-09T09:23:23.179Z,35.21
2024-05-09T09:25:50.189Z,35.56
2024-05-09T09:28:16.823Z,36.05
2024-05-09T09:30:44.018Z,36.47
2024-05-09T09:33:11.429Z,36.87
2024-05-09T09:35:40.414Z,35.78
2024-05-09T09:38:07.963Z,34.89
2024-05-09T09:40:40.992Z,34.86
2024-05-09T09:43:22.422Z,34.33
2024-05-09T09:45:52.822Z,35.74
2024-05-09T09:48:21.292Z,37.18
2024-05-09T09:50:52.973Z,37.99
2024-05-09T09:53:19.930Z,36.56
2024-05-09T09:55:47.031Z,37.20
2024-05-09T09:58:16.930Z,38.29
2024-05-09T10:00:44.339Z,38.58
2024-05-09T10:03:11.348Z,38.72
2024-05-09T10:05:42.039Z,39.17
2024-05-09T10:08:12.018Z,39.93
2024-05-09T10:10:38.786Z,41.00
2024-05-09T10:13:07.275Z,42.39
2024-05-09T10:15:48.149Z,43.30
2024-05-09T10:18:15.405Z,43.93
2024-05-09T10:20:46.516Z,44.55
2024-05-09T10:23:30.322Z,45.41
2024-05-09T10:26:01.790Z,45.46
2024-05-09T10:28:36.781Z,45.52
2024-05-09T10:31:11.019Z,45.82
2024-05-09T10:33:50.344Z,45.57
2024-05-09T10:36:22.845Z,45.36
2024-05-09T10:38:50.893Z,45.32
2024-05-09T10:41:18.215Z,45.70
2024-05-09T10:43:44.854Z,45.40
2024-05-09T10:46:12.283Z,45.35
2024-05-09T10:48:41.786Z,45.62
2024-05-09T10:51:09.465Z,45.41
2024-05-09T10:53:47.382Z,45.56
2024-05-09T10:56:14.984Z,45.63
2024-05-09T10:58:42.160Z,45.89
2024-05-09T11:01:09.618Z,45.70
2024-05-09T11:03:36.644Z,45.39
2024-05-09T11:06:03.700Z,45.33
2024-05-09T11:08:32.231Z,45.17
2024-05-09T11:10:59.411Z,44.90
2024-05-09T11:13:30.288Z,44.59
2024-05-09T11:15:57.697Z,44.74
2024-05-09T11:18:27.858Z,44.76
2024-05-09T11:20:56.983Z,43.98
2024-05-09T11:23:26.461Z,43.86
2024-05-09T11:25:58.588Z,44.10
2024-05-09T11:28:28.796Z,44.41
2024-05-09T11:31:08.728Z,44.31
2024-05-09T11:33:40.846Z,43.92
2024-05-09T11:36:08.602Z,43.81
2024-05-09T11:38:35.452Z,43.35
2024-05-09T11:41:03.386Z,43.31
2024-05-09T11:43:29.915Z,43.79
2024-05-09T11:45:57.827Z,43.72
2024-05-09T11:48:28.110Z,43.69
2024-05-09T11:50:55.879Z,43.90
2024-05-09T11:53:22.405Z,44.82
2024-05-09T11:55:48.973Z,45.18
2024-05-09T11:58:17.009Z,44.90
2024-05-09T12:00:44.094Z,44.57
2024-05-09T12:03:10.702Z,43.17
2024-05-09T12:05:37.296Z,42.80
2024-05-09T12:08:04.291Z,43.07
2024-05-09T12:10:34.410Z,42.97
2024-05-09T12:13:04.920Z,42.76
2024-05-09T12:15:33.683Z,42.29
2024-05-09T12:18:02.963Z,41.97
2024-05-09T12:20:36.790Z,41.66
2024-05-09T12:23:06.413Z,41.50
2024-05-09T12:25:33.114Z,41.48
2024-05-09T12:27:59.995Z,41.18
2024-05-09T12:30:35.435Z,40.70
2024-05-09T12:33:07.669Z,40.49
2024-05-09T12:35:34.605Z,40.79
2024-05-09T12:38:01.265Z,40.83
2024-05-09T12:40:35.501Z,40.49
2024-05-09T12:43:09.122Z,40.32
2024-05-09T12:45:36.975Z,40.60
2024-05-09T12:48:07.261Z,40.62
2024-05-09T12:50:34.781Z,40.84
2024-05-09T12:53:03.129Z,40.89
2024-05-09T12:55:37.318Z,41.21
2024-05-09T12:58:11.511Z,41.38
2024-05-09T13:00:38.294Z,41.48
2024-05-09T13:03:05.288Z,41.46
2024-05-09T13:05:32.174Z,41.89
2024-05-09T13:08:00.300Z,42.34
2024-05-09T13:10:31.987Z,42.52
2024-05-09T13:13:01.317Z,42.84
2024-05-09T13:15:30.610Z,42.80
2024-05-09T13:18:01.548Z,42.53
2024-05-09T13:20:33.722Z,42.11
2024-05-09T13:23:03.874Z,42.64
2024-05-09T13:25:30.664Z,43.24
2024-05-09T13:27:57.670Z,43.01
2024-05-09T13:32:54.362Z,42.55
2024-05-09T13:35:20.990Z,42.70
2024-05-09T13:37:47.654Z,42.10
2024-05-09T13:40:14.559Z,42.18
2024-05-09T13:42:41.240Z,42.61
2024-05-09T13:45:08.199Z,43.43
2024-05-09T13:47:34.968Z,44.02
2024-05-09T13:50:02.717Z,44.15
2024-05-09T13:52:29.328Z,44.26
2024-05-09T13:54:55.942Z,44.27
2024-05-09T13:57:22.478Z,43.58
2024-05-09T13:59:49.121Z,43.16
2024-05-09T14:02:15.767Z,42.97
2024-05-09T14:04:43.174Z,42.98
2024-05-09T14:07:10.351Z,42.79
2024-05-09T14:09:37.137Z,42.71
2024-05-09T14:12:04.212Z,43.08
2024-05-09T14:14:30.812Z,43.15
2024-05-09T14:16:57.462Z,42.74
2024-05-09T14:19:24.032Z,42.54
2024-05-09T14:21:50.597Z,42.45
2024-05-09T14:24:17.197Z,42.67
2024-05-09T14:26:44.372Z,42.32
2024-05-09T14:29:10.880Z,42.53
2024-05-09T14:31:39.407Z,42.83
2024-05-09T14:34:06.346Z,42.95
2024-05-09T14:36:33.550Z,42.47
2024-05-09T14:39:00.172Z,42.22
2024-05-09T14:41:26.658Z,42.47
2024-05-09T14:43:53.125Z,42.00
2024-05-09T14:46:19.797Z,41.95
2024-05-09T14:48:46.606Z,42.16
2024-05-09T14:51:13.262Z,42.12
2024-05-09T14:53:39.785Z,41.90
2024-05-09T14:56:06.763Z,41.89
2024-05-09T14:58:33.290Z,42.22
2024-05-09T15:00:59.923Z,42.27
2024-05-09T15:03:26.950Z,42.00
2024-05-09T15:05:53.650Z,41.56
2024-05-09T15:08:20.293Z,41.47
2024-05-09T15:10:49.032Z,41.47
2024-05-09T15:13:16.979Z,41.53
2024-05-09T15:15:43.958Z,41.35
2024-05-09T15:18:10.701Z,41.50
2024-05-09T15:20:37.982Z,41.43
2024-05-09T15:23:06.442Z,41.18
2024-05-09T15:25:34.528Z,40.34
2024-05-09T15:28:01.381Z,40.70
2024-05-09T15:30:31.451Z,40.66
2024-05-09T15:33:02.890Z,40.65
2024-05-09T15:35:29.473Z,41.17
2024-05-09T15:37:56.504Z,41.45
2024-05-09T15:40:34.426Z,40.95
2024-05-09T15:43:06.668Z,40.84
2024-05-09T15:45:34.236Z,41.06
2024-05-09T15:48:02.244Z,40.79
2024-05-09T15:50:36.733Z,40.66
2024-05-09T15:53:07.176Z,40.84
2024-05-09T15:55:34.886Z,40.63
2024-05-09T15:58:02.890Z,40.95
2024-05-09T16:00:37.159Z,41.32
2024-05-09T16:03:07.644Z,41.05
2024-05-09T16:05:34.611Z,40.95
2024-05-09T16:08:01.282Z,40.83
2024-05-09T16:10:32.688Z,39.88
2024-05-09T16:13:02.001Z,40.30
2024-05-09T16:15:29.029Z,40.14
2024-05-09T16:17:55.779Z,40.01
2024-05-09T16:20:33.832Z,40.18
2024-05-09T16:23:06.062Z,40.34
2024-05-09T16:25:32.632Z,40.37
2024-05-09T16:27:59.619Z,40.40
2024-05-09T16:30:33.718Z,40.60
2024-05-09T16:33:03.907Z,40.75
2024-05-09T16:35:31.238Z,40.87
2024-05-09T16:37:57.844Z,40.93
2024-05-09T16:40:34.211Z,40.80
2024-05-09T16:43:06.071Z,40.79
2024-05-09T16:45:32.956Z,40.80
2024-05-09T16:48:00.397Z,40.58
2024-05-09T16:50:32.554Z,40.73
2024-05-09T16:53:01.999Z,40.63
2024-05-09T16:55:28.784Z,40.51
2024-05-09T16:57:56.962Z,40.57
2024-05-09T17:00:35.168Z,40.52
2024-05-09T17:03:08.914Z,40.44
2024-05-09T17:05:36.382Z,40.71
2024-05-09T17:08:03.605Z,40.75
2024-05-09T17:10:33.642Z,41.14
2024-05-09T17:13:04.032Z,41.70
2024-05-09T17:15:32.323Z,42.38
2024-05-09T17:17:59.264Z,42.96
2024-05-09T17:20:32.418Z,43.09
2024-05-09T17:23:03.066Z,43.36
2024-05-09T17:25:29.804Z,43.70
2024-05-09T17:27:57.180Z,43.97
2024-05-09T17:30:29.406Z,44.28
2024-05-09T17:33:03.503Z,44.64
2024-05-09T17:35:32.048Z,44.98
2024-05-09T17:37:59.502Z,45.29
2024-05-09T17:40:32.598Z,45.68
2024-05-09T17:43:02.683Z,45.92
2024-05-09T17:45:29.734Z,46.28
2024-05-09T17:47:56.462Z,46.64
2024-05-09T17:50:30.338Z,46.75
2024-05-09T17:53:01.457Z,46.93
2024-05-09T17:55:28.322Z,47.02
2024-05-09T17:57:54.956Z,46.88
2024-05-09T18:00:32.418Z,46.31
2024-05-09T18:03:04.738Z,45.83
2024-05-09T18:05:31.956Z,45.85
2024-05-09T18:07:58.605Z,45.50
2024-05-09T18:10:32.851Z,45.31
2024-05-09T18:13:04.888Z,45.20
2024-05-09T18:15:31.572Z,45.13
2024-05-09T18:18:00.833Z,45.23
2024-05-09T18:20:37.355Z,45.23
2024-05-09T18:23:09.890Z,45.39
2024-05-09T18:25:36.412Z,45.51
2024-05-09T18:28:03.581Z,45.78
2024-05-09T18:30:34.885Z,46.09
2024-05-09T18:33:05.553Z,46.49
2024-05-09T18:35:33.557Z,46.71
2024-05-09T18:38:00.283Z,46.90
2024-05-09T18:40:33.703Z,47.16
2024-05-09T18:43:04.898Z,47.30
2024-05-09T18:45:32.573Z,47.57
2024-05-09T18:47:59.506Z,47.84
2024-05-09T18:50:34.343Z,48.10
2024-05-09T18:53:12.073Z,48.36
2024-05-09T18:55:40.560Z,48.31
2024-05-09T18:58:07.185Z,48.46
2024-05-09T19:00:37.388Z,48.60
2024-05-09T19:03:08.074Z,48.65
2024-05-09T19:05:36.288Z,48.47
2024-05-09T19:08:03.430Z,48.48
2024-05-09T19:10:34.325Z,48.64
2024-05-09T19:13:06.668Z,48.58
2024-05-09T19:15:37.594Z,48.44
2024-05-09T19:18:04.608Z,48.83
2024-05-09T19:20:34.535Z,48.99
2024-05-09T19:23:02.660Z,48.93
2024-05-09T19:25:29.279Z,49.11
2024-05-09T19:27:55.813Z,48.98
2024-05-09T19:30:30.187Z,49.06
2024-05-09T19:33:05.436Z,49.43
2024-05-09T19:35:32.199Z,49.37
2024-05-09T19:37:58.792Z,49.74
2024-05-09T19:40:31.114Z,49.89
2024-05-09T19:43:00.438Z,49.92
2024-05-09T19:45:27.038Z,50.09
2024-05-09T19:47:53.679Z,50.29
2024-05-09T19:50:27.042Z,50.48
2024-05-09T19:53:02.759Z,50.71
2024-05-09T19:55:29.240Z,50.96
2024-05-09T19:57:55.882Z,50.81
2024-05-09T20:00:29.344Z,50.76
2024-05-09T20:03:02.176Z,50.89
2024-05-09T20:05:30.394Z,51.23
2024-05-09T20:07:57.294Z,51.27
2024-05-09T20:10:29.395Z,51.72
2024-05-09T20:12:58.486Z,51.49
2024-05-09T20:15:25.070Z,51.34
2024-05-09T20:17:51.732Z,51.99
2024-05-09T20:20:28.240Z,52.12
2024-05-09T20:23:02.845Z,52.45
2024-05-09T20:25:29.512Z,52.58
2024-05-09T20:27:56.030Z,52.73
2024-05-09T20:30:28.990Z,53.02
2024-05-09T20:32:59.415Z,53.22
2024-05-09T20:35:30.238Z,53.45
2024-05-09T20:37:56.778Z,53.74
2024-05-09T20:40:29.182Z,54.00
2024-05-09T20:43:00.118Z,54.22
2024-05-09T20:45:26.745Z,54.47
2024-05-09T20:47:53.481Z,54.70
2024-05-09T20:50:28.533Z,54.90
2024-05-09T20:53:02.863Z,55.28
2024-05-09T20:55:29.519Z,55.56
2024-05-09T20:57:56.055Z,55.98
2024-05-09T21:00:29.942Z,56.26
2024-05-09T21:03:04.774Z,56.59
2024-05-09T21:05:31.730Z,56.85
2024-05-09T21:07:58.313Z,57.11
2024-05-09T21:10:26.835Z,57.39
2024-05-09T21:12:53.916Z,57.63
2024-05-09T21:15:20.443Z,57.77
2024-05-09T21:17:47.084Z,58.08
2024-05-09T21:20:17.511Z,58.36
2024-05-09T21:22:47.426Z,58.63
2024-05-09T21:25:14.372Z,58.88
2024-05-09T21:27:41.024Z,59.17
2024-05-09T21:30:12.945Z,59.49
2024-05-09T21:32:44.960Z,59.74
2024-05-09T21:35:11.507Z,60.01
2024-05-09T21:37:37.972Z,60.30
2024-05-09T21:40:09.550Z,60.48
2024-05-09T21:42:40.186Z,60.67
2024-05-09T21:45:07.150Z,60.98
2024-05-09T21:47:37.151Z,61.20
2024-05-09T21:50:06.107Z,61.56
2024-05-09T21:52:32.651Z,61.89
2024-05-09T21:54:59.204Z,62.30
2024-05-09T21:57:25.875Z,62.60
2024-05-09T21:59:52.489Z,62.89
2024-05-09T22:02:19.357Z,63.16
2024-05-09T22:04:46.052Z,63.47
2024-05-09T22:07:12.836Z,63.70
2024-05-09T22:09:44.992Z,63.93
2024-05-09T22:12:12.156Z,64.09
2024-05-09T22:14:38.743Z,64.38
2024-05-09T22:17:05.338Z,64.57
2024-05-09T22:19:31.891Z,64.84
2024-05-09T22:21:58.474Z,65.09
2024-05-09T22:24:24.958Z,65.36
2024-05-09T22:26:53.337Z,65.58
2024-05-09T22:29:19.947Z,65.76
2024-05-09T22:31:46.466Z,65.96
2024-05-09T22:34:13.276Z,66.14
2024-05-09T22:36:39.935Z,66.36
2024-05-09T22:39:07.324Z,66.47
2024-05-09T22:41:33.787Z,66.66
2024-05-09T22:44:01.800Z,66.88
2024-05-09T22:46:28.523Z,67.10
2024-05-09T22:48:55.279Z,67.26
2024-05-09T22:51:21.926Z,67.43
2024-05-09T22:53:48.570Z,67.61
2024-05-09T22:56:15.206Z,67.82
2024-05-09T22:58:41.732Z,67.92
2024-05-09T23:01:15.185Z,68.05
2024-05-09T23:03:41.993Z,68.21
2024-05-09T23:06:08.712Z,68.27
2024-05-09T23:08:35.243Z,68.12
2024-05-09T23:11:03.716Z,68.12
2024-05-09T23:13:30.333Z,68.16
2024-05-09T23:15:57.370Z,68.31
2024-05-09T23:18:24.057Z,68.43
2024-05-09T23:20:51.591Z,68.51
2024-05-09T23:23:18.168Z,68.60
2024-05-09T23:25:44.757Z,68.55
2024-05-09T23:28:11.860Z,68.54
2024-05-09T23:30:40.755Z,68.53
2024-05-09T23:33:13.313Z,68.50
2024-05-09T23:35:42.062Z,68.54
2024-05-09T23:38:08.683Z,68.58
2024-05-09T23:40:39.517Z,68.64
2024-05-09T23:43:10.182Z,68.63
2024-05-09T23:45:37.326Z,68.45
2024-05-09T23:48:05.686Z,68.45
2024-05-09T23:50:36.458Z,68.56
2024-05-09T23:53:06.959Z,68.64
2024-05-09T23:55:34.706Z,68.71
2024-05-09T23:58:01.361Z,68.70
